Time,TemperatureF,DewpointF,PressureIn,WindDirection,WindDirectionDegrees,WindSpeedMPH,WindSpeedGustMPH,Humidity,HourlyPrecipIn,Conditions,Clouds,dailyrainin,SoftwareType,DateUTC
2013-05-07 00:00:00,56.8,46.0,30.05,NE,45,0.0,0.0,67,-99.99,,,0.00,wxRedirect v1.1,2013-05-07 05:00:00,
2013-05-07 00:06:00,56.5,46.0,30.05,NE,45,0.0,0.0,68,-99.99,,,0.00,wxRedirect v1.1,2013-05-07 05:06:00,
2013-05-07 00:11:00,56.3,45.9,30.05,NE,45,0.0,0.0,68,-99.99,,,0.00,wxRedirect v1.1,2013-05-07 05:11:00,
2013-05-07 00:16:00,56.1,45.9,30.05,NE,45,0.0,0.0,68,-99.99,,,0.00,wxRedirect v1.1,2013-05-07 05:16:00,
2013-05-07 00:22:00,56.1,45.7,30.05,NE,45,0.0,0.0,68,-99.99,,,0.00,wxRedirect v1.1,2013-05-07 05:22:00,
2013-05-07 00:27:00,55.9,45.9,30.06,NE,45,0.0,0.0,69,-99.99,,,0.00,wxRedirect v1.1,2013-05-07 05:27:00,
2013-05-07 00:32:00,55.9,45.9,30.06,NE,45,0.0,0.0,69,-99.99,,,0.00,wxRedirect v1.1,2013-05-07 05:32:00,
2013-05-07 00:38:00,55.8,45.8,30.05,NE,45,0.0,0.0,69,-99.99,,,0.00,wxRedirect v1.1,2013-05-07 05:38:00,
2013-05-07 00:43:00,55.6,45.6,30.05,NE,45,0.0,0.0,69,-99.99,,,0.00,wxRedirect v1.1,2013-05-07 05:43:00,
2013-05-07 00:48:00,55.2,45.3,30.06,NE,45,0.0,0.0,69,-99.99,,,0.00,wxRedirect v1.1,2013-05-07 05:48:00,
2013-05-07 00:54:00,55.2,45.7,30.05,NE,45,0.0,0.0,70,-99.99,,,0.00,wxRedirect v1.1,2013-05-07 05:54:00,
2013-05-07 00:59:00,55.2,45.7,30.06,NE,45,0.0,0.0,70,-99.99,,,0.00,wxRedirect v1.1,2013-05-07 05:59:00,
2013-05-07 01:04:00,55.0,45.5,30.05,NE,45,0.0,0.0,70,-99.99,,,0.00,wxRedirect v1.1,2013-05-07 06:04:00,
2013-05-07 01:09:00,54.9,45.3,30.05,NE,45,0.0,0.0,70,-99.99,,,0.00,wxRedirect v1.1,2013-05-07 06:09:00,
2013-05-07 01:15:00,54.3,45.1,30.06,ENE,67,0.0,0.0,71,-99.99,,,0.00,wxRedirect v1.1,2013-05-07 06:15:00,
2013-05-07 01:20:00,54.0,44.8,30.06,ENE,67,0.0,0.0,71,-99.99,,,0.00,wxRedirect v1.1,2013-05-07 06:20:00,
2013-05-07 01:25:00,54.1,44.9,30.06,ENE,67,0.0,0.0,71,-99.99,,,0.00,wxRedirect v1.1,2013-05-07 06:25:00,
2013-05-07 01:31:00,53.8,44.6,30.06,ENE,67,0.0,0.0,71,-99.99,,,0.00,wxRedirect v1.1,2013-05-07 06:31:00,
2013-05-07 01:36:00,54.1,44.9,30.06,ENE,67,0.0,0.0,71,-99.99,,,0.00,wxRedirect v1.1,2013-05-07 06:36:00,
2013-05-07 01:41:00,54.1,44.9,30.06,ENE,67,0.0,0.0,71,-99.99,,,0.00,wxRedirect v1.1,2013-05-07 06:41:00,
2013-05-07 01:47:00,54.0,44.8,30.06,ENE,67,0.0,0.0,71,-99.99,,,0.00,wxRedirect v1.1,2013-05-07 06:47:00,
2013-05-07 01:52:00,53.8,44.9,30.06,ENE,67,0.0,0.0,72,-99.99,,,0.00,wxRedirect v1.1,2013-05-07 06:52:00,
2013-05-07 01:57:00,53.8,44.9,30.06,ENE,67,0.0,0.0,72,-99.99,,,0.00,wxRedirect v1.1,2013-05-07 06:57:00,
2013-05-07 02:03:00,53.6,44.8,30.06,ENE,67,0.0,0.0,72,-99.99,,,0.00,wxRedirect v1.1,2013-05-07 07:03:00,
2013-05-07 02:08:00,53.4,44.6,30.06,ENE,67,0.0,0.0,72,-99.99,,,0.00,wxRedirect v1.1,2013-05-07 07:08:00,
2013-05-07 02:14:00,53.2,44.8,30.06,ENE,67,0.0,0.0,73,-99.99,,,0.00,wxRedirect v1.1,2013-05-07 07:14:00,
2013-05-07 02:19:00,53.2,44.8,30.06,ENE,67,0.0,0.0,73,-99.99,,,0.00,wxRedirect v1.1,2013-05-07 07:19:00,
2013-05-07 02:24:00,53.2,44.8,30.06,ENE,67,0.0,0.0,73,-99.99,,,0.00,wxRedirect v1.1,2013-05-07 07:24:00,
2013-05-07 02:29:00,52.9,44.5,30.06,ENE,67,0.0,0.0,73,-99.99,,,0.00,wxRedirect v1.1,2013-05-07 07:29:00,
2013-05-07 02:35:00,52.9,44.5,30.06,ENE,67,0.0,0.0,73,-99.99,,,0.00,wxRedirect v1.1,2013-05-07 07:35:00,
2013-05-07 02:40:00,52.7,44.3,30.06,ENE,67,0.0,0.0,73,-99.99,,,0.00,wxRedirect v1.1,2013-05-07 07:40:00,
2013-05-07 02:45:00,52.7,44.3,30.06,ENE,67,0.0,0.0,73,-99.99,,,0.00,wxRedirect v1.1,2013-05-07 07:45:00,
2013-05-07 02:51:00,52.7,44.3,30.05,ENE,67,0.0,0.0,73,-99.99,,,0.00,wxRedirect v1.1,2013-05-07 07:51:00,
2013-05-07 02:56:00,52.5,44.5,30.05,ENE,67,0.0,0.0,74,-99.99,,,0.00,wxRedirect v1.1,2013-05-07 07:56:00,
2013-05-07 03:01:00,52.3,44.3,30.05,ENE,67,0.0,0.0,74,-99.99,,,0.00,wxRedirect v1.1,2013-05-07 08:01:00,
2013-05-07 03:07:00,52.0,44.0,30.05,ENE,67,0.0,0.0,74,-99.99,,,0.00,wxRedirect v1.1,2013-05-07 08:07:00,
2013-05-07 03:12:00,51.8,43.8,30.05,ENE,67,0.0,0.0,74,-99.99,,,0.00,wxRedirect v1.1,2013-05-07 08:12:00,
2013-05-07 03:17:00,51.6,43.6,30.05,ENE,67,0.0,0.0,74,-99.99,,,0.00,wxRedirect v1.1,2013-05-07 08:17:00,
2013-05-07 03:23:00,51.6,44.0,30.05,ENE,67,0.0,0.0,75,-99.99,,,0.00,wxRedirect v1.1,2013-05-07 08:23:00,
2013-05-07 03:28:00,51.6,44.0,30.05,ENE,67,0.0,0.0,75,-99.99,,,0.00,wxRedirect v1.1,2013-05-07 08:28:00,
2013-05-07 03:33:00,51.4,43.8,30.05,ENE,67,0.0,0.0,75,-99.99,,,0.00,wxRedirect v1.1,2013-05-07 08:33:00,
2013-05-07 03:39:00,51.4,43.8,30.05,ENE,67,0.0,0.0,75,-99.99,,,0.00,wxRedirect v1.1,2013-05-07 08:39:00,
2013-05-07 03:44:00,51.3,43.6,30.05,ENE,67,0.0,0.0,75,-99.99,,,0.00,wxRedirect v1.1,2013-05-07 08:44:00,
2013-05-07 03:49:00,51.1,43.4,30.05,ENE,67,0.0,0.0,75,-99.99,,,0.00,wxRedirect v1.1,2013-05-07 08:49:00,
2013-05-07 03:55:00,51.1,43.8,30.05,ENE,67,0.0,0.0,76,-99.99,,,0.00,wxRedirect v1.1,2013-05-07 08:55:00,
2013-05-07 04:00:00,51.1,43.8,30.05,ENE,67,0.0,0.0,76,-99.99,,,0.00,wxRedirect v1.1,2013-05-07 09:00:00,
2013-05-07 04:05:00,51.1,43.8,30.05,ENE,67,0.0,0.0,76,-99.99,,,0.00,wxRedirect v1.1,2013-05-07 09:05:00,
2013-05-07 04:11:00,51.1,43.8,30.05,ENE,67,0.0,0.0,76,-99.99,,,0.00,wxRedirect v1.1,2013-05-07 09:11:00,
2013-05-07 04:16:00,51.1,43.8,30.05,ENE,67,0.0,0.0,76,-99.99,,,0.00,wxRedirect v1.1,2013-05-07 09:16:00,
2013-05-07 04:21:00,50.9,43.6,30.05,ENE,67,0.0,0.0,76,-99.99,,,0.00,wxRedirect v1.1,2013-05-07 09:21:00,
2013-05-07 04:27:00,50.9,43.6,30.05,ENE,67,0.0,0.0,76,-99.99,,,0.00,wxRedirect v1.1,2013-05-07 09:27:00,
2013-05-07 04:32:00,50.9,43.9,30.05,East,90,0.0,0.0,77,-99.99,,,0.00,wxRedirect v1.1,2013-05-07 09:32:00,
2013-05-07 04:37:00,50.9,43.9,30.05,East,90,0.0,0.0,77,-99.99,,,0.00,wxRedirect v1.1,2013-05-07 09:37:00,
2013-05-07 04:43:00,50.9,43.9,30.05,East,90,0.0,0.0,77,-99.99,,,0.00,wxRedirect v1.1,2013-05-07 09:43:00,
2013-05-07 04:48:00,51.1,44.1,30.05,East,90,0.0,0.0,77,-99.99,,,0.00,wxRedirect v1.1,2013-05-07 09:48:00,
2013-05-07 04:53:00,51.1,44.1,30.05,East,90,0.0,0.0,77,-99.99,,,0.00,wxRedirect v1.1,2013-05-07 09:53:00,
2013-05-07 04:59:00,51.1,44.1,30.05,East,90,0.0,0.0,77,-99.99,,,0.00,wxRedirect v1.1,2013-05-07 09:59:00,
2013-05-07 05:04:00,51.1,44.5,30.05,East,90,0.0,0.0,78,-99.99,,,0.00,wxRedirect v1.1,2013-05-07 10:04:00,
2013-05-07 05:09:00,51.3,44.6,30.05,East,90,0.0,0.0,78,-99.99,,,0.00,wxRedirect v1.1,2013-05-07 10:09:00,
2013-05-07 05:15:00,51.3,44.6,30.05,East,90,0.0,0.0,78,-99.99,,,0.00,wxRedirect v1.1,2013-05-07 10:15:00,
2013-05-07 05:20:00,51.4,44.8,30.06,ESE,112,0.0,0.0,78,-99.99,,,0.00,wxRedirect v1.1,2013-05-07 10:20:00,
2013-05-07 05:25:00,51.4,44.8,30.06,ESE,112,0.0,0.0,78,-99.99,,,0.00,wxRedirect v1.1,2013-05-07 10:25:00,
2013-05-07 05:31:00,51.4,44.8,30.06,ESE,112,0.0,0.0,78,-99.99,,,0.00,wxRedirect v1.1,2013-05-07 10:31:00,
2013-05-07 05:36:00,51.4,44.8,30.06,ESE,112,0.0,0.0,78,-99.99,,,0.00,wxRedirect v1.1,2013-05-07 10:36:00,
2013-05-07 05:41:00,51.4,44.8,30.05,ESE,112,0.0,0.0,78,-99.99,,,0.00,wxRedirect v1.1,2013-05-07 10:41:00,
2013-05-07 05:47:00,51.4,44.8,30.06,ESE,112,0.0,0.0,78,-99.99,,,0.00,wxRedirect v1.1,2013-05-07 10:47:00,
2013-05-07 05:52:00,51.4,44.8,30.06,ESE,112,0.0,0.0,78,-99.99,,,0.00,wxRedirect v1.1,2013-05-07 10:52:00,
2013-05-07 05:57:00,51.4,44.8,30.06,ESE,112,0.0,0.0,78,-99.99,,,0.00,wxRedirect v1.1,2013-05-07 10:57:00,
2013-05-07 06:03:00,51.4,44.8,30.06,ESE,112,0.0,0.0,78,-99.99,,,0.00,wxRedirect v1.1,2013-05-07 11:03:00,
2013-05-07 06:08:00,51.4,44.8,30.05,ESE,112,0.0,0.0,78,-99.99,,,0.00,wxRedirect v1.1,2013-05-07 11:08:00,
2013-05-07 06:13:00,51.4,44.8,30.06,ESE,112,0.0,0.0,78,-99.99,,,0.00,wxRedirect v1.1,2013-05-07 11:13:00,
2013-05-07 06:19:00,51.4,44.8,30.06,ESE,112,0.0,0.0,78,-99.99,,,0.00,wxRedirect v1.1,2013-05-07 11:19:00,
2013-05-07 06:24:00,51.3,44.6,30.06,North,-999,-999.0,-999.0,78,-99.99,,,0.00,wxRedirect v1.1,2013-05-07 11:24:00,
2013-05-07 06:29:00,51.1,44.5,30.06,ESE,112,0.0,0.0,78,-99.99,,,0.00,wxRedirect v1.1,2013-05-07 11:29:00,
2013-05-07 06:35:00,51.1,44.5,30.06,ESE,112,0.0,0.0,78,-99.99,,,0.00,wxRedirect v1.1,2013-05-07 11:35:00,
2013-05-07 06:40:00,51.1,44.5,30.06,ESE,112,0.0,0.0,78,-99.99,,,0.00,wxRedirect v1.1,2013-05-07 11:40:00,
2013-05-07 06:45:00,51.1,44.5,30.07,ESE,112,0.0,0.0,78,-99.99,,,0.00,wxRedirect v1.1,2013-05-07 11:45:00,
2013-05-07 06:51:00,50.9,44.3,30.07,ESE,112,0.0,0.0,78,-99.99,,,0.00,wxRedirect v1.1,2013-05-07 11:51:00,
2013-05-07 06:56:00,50.9,44.3,30.07,ESE,112,0.0,0.0,78,-99.99,,,0.00,wxRedirect v1.1,2013-05-07 11:56:00,
2013-05-07 07:02:00,50.9,44.3,30.07,ESE,112,0.0,0.0,78,-99.99,,,0.00,wxRedirect v1.1,2013-05-07 12:02:00,
2013-05-07 07:07:00,50.9,44.3,30.07,ESE,112,0.0,0.0,78,-99.99,,,0.00,wxRedirect v1.1,2013-05-07 12:07:00,
2013-05-07 07:12:00,51.1,44.6,30.07,ESE,112,0.0,0.0,79,-99.99,,,0.00,wxRedirect v1.1,2013-05-07 12:12:00,
2013-05-07 07:18:00,51.1,44.8,30.07,SE,135,0.0,0.0,79,-99.99,,,0.00,wxRedirect v1.1,2013-05-07 12:18:00,
2013-05-07 07:23:00,51.3,45.0,30.07,SSE,157,2.9,2.9,79,-99.99,,,0.00,wxRedirect v1.1,2013-05-07 12:23:00,
2013-05-07 07:28:00,51.6,45.0,30.08,South,180,0.0,2.9,79,-99.99,,,0.00,wxRedirect v1.1,2013-05-07 12:28:00,
2013-05-07 07:34:00,51.8,45.5,30.08,South,180,0.0,2.7,79,-99.99,,,0.00,wxRedirect v1.1,2013-05-07 12:34:00,
2013-05-07 07:39:00,52.0,46.0,30.08,South,180,0.0,0.7,80,-99.99,,,0.00,wxRedirect v1.1,2013-05-07 12:39:00,
2013-05-07 07:44:00,52.3,46.4,30.07,SSE,157,3.4,3.4,80,-99.99,,,0.00,wxRedirect v1.1,2013-05-07 12:44:00,
2013-05-07 07:50:00,52.5,46.6,30.08,SSE,157,2.7,3.4,80,-99.99,,,0.00,wxRedirect v1.1,2013-05-07 12:50:00,
2013-05-07 07:55:00,52.9,46.9,30.08,South,180,0.0,5.1,80,-99.99,,,0.00,wxRedirect v1.1,2013-05-07 12:55:00,
2013-05-07 08:00:00,53.4,47.5,30.08,South,180,0.0,5.1,80,-99.99,,,0.00,wxRedirect v1.1,2013-05-07 13:00:00,
2013-05-07 08:06:00,53.4,47.5,30.09,South,180,0.0,0.0,80,-99.99,,,0.00,wxRedirect v1.1,2013-05-07 13:06:00,
2013-05-07 08:11:00,53.8,47.8,30.09,SSW,202,0.0,0.0,80,-99.99,,,0.00,wxRedirect v1.1,2013-05-07 13:11:00,
2013-05-07 08:16:00,54.1,48.1,30.09,South,180,0.0,0.0,80,-99.99,,,0.00,wxRedirect v1.1,2013-05-07 13:16:00,
2013-05-07 08:22:00,54.3,48.3,30.09,SSW,202,0.0,2.0,80,-99.99,,,0.00,wxRedirect v1.1,2013-05-07 13:22:00,
2013-05-07 08:27:00,54.3,47.9,30.09,SSW,202,4.9,4.9,79,-99.99,,,0.00,wxRedirect v1.1,2013-05-07 13:27:00,
2013-05-07 08:32:00,54.7,48.3,30.09,South,180,0.0,7.8,79,-99.99,,,0.00,wxRedirect v1.1,2013-05-07 13:32:00,
2013-05-07 08:38:00,55.0,48.6,30.09,SSW,202,0.0,7.8,79,-99.99,,,0.00,wxRedirect v1.1,2013-05-07 13:38:00,
2013-05-07 08:43:00,55.4,48.9,30.09,SSE,157,1.6,7.6,79,-99.99,,,0.00,wxRedirect v1.1,2013-05-07 13:43:00,
2013-05-07 08:48:00,55.6,49.1,30.08,South,180,4.0,7.6,79,-99.99,,,0.00,wxRedirect v1.1,2013-05-07 13:48:00,
2013-05-07 08:54:00,56.1,49.3,30.09,South,180,0.0,4.0,78,-99.99,,,0.00,wxRedirect v1.1,2013-05-07 13:54:00,
2013-05-07 08:59:00,56.5,49.6,30.09,SSE,157,6.7,6.7,78,-99.99,,,0.00,wxRedirect v1.1,2013-05-07 13:59:00,
2013-05-07 09:04:00,56.8,49.6,30.09,South,180,2.7,6.7,77,-99.99,,,0.00,wxRedirect v1.1,2013-05-07 14:04:00,
2013-05-07 09:10:00,57.0,49.8,30.09,SSE,157,2.7,4.3,77,-99.99,,,0.00,wxRedirect v1.1,2013-05-07 14:10:00,
2013-05-07 09:15:00,57.6,50.0,30.09,South,180,4.9,8.7,76,-99.99,,,0.00,wxRedirect v1.1,2013-05-07 14:15:00,
2013-05-07 09:20:00,57.7,50.2,30.09,SSE,157,1.3,8.7,76,-99.99,,,0.00,wxRedirect v1.1,2013-05-07 14:20:00,
2013-05-07 09:26:00,58.8,51.3,30.09,South,180,2.2,7.6,76,-99.99,,,0.00,wxRedirect v1.1,2013-05-07 14:26:00,
2013-05-07 09:31:00,59.4,51.4,30.09,SSW,202,5.8,7.6,75,-99.99,,,0.00,wxRedirect v1.1,2013-05-07 14:31:00,
2013-05-07 09:36:00,59.9,51.6,30.09,SSE,157,2.7,7.8,74,-99.99,,,0.00,wxRedirect v1.1,2013-05-07 14:36:00,
2013-05-07 09:42:00,60.3,52.0,30.09,SSE,157,3.1,7.8,74,-99.99,,,0.00,wxRedirect v1.1,2013-05-07 14:42:00,
2013-05-07 09:47:00,60.6,52.0,30.09,SSW,202,5.1,5.8,73,-99.99,,,0.00,wxRedirect v1.1,2013-05-07 14:47:00,
2013-05-07 09:52:00,60.4,51.8,30.09,SSW,202,7.8,7.8,73,-99.99,,,0.00,wxRedirect v1.1,2013-05-07 14:52:00,
2013-05-07 09:58:00,61.0,52.0,30.09,South,180,9.8,9.8,72,-99.99,,,0.00,wxRedirect v1.1,2013-05-07 14:58:00,
2013-05-07 10:03:00,61.2,51.8,30.08,SSE,157,11.0,11.0,71,-99.99,,,0.00,wxRedirect v1.1,2013-05-07 15:03:00,
2013-05-07 10:08:00,61.0,52.0,30.09,SSE,157,4.7,11.0,71,-99.99,,,0.00,wxRedirect v1.1,2013-05-07 15:08:00,
2013-05-07 10:13:00,61.3,51.9,30.09,South,180,2.2,4.7,71,-99.99,,,0.00,wxRedirect v1.1,2013-05-07 15:13:00,
2013-05-07 10:18:00,61.5,52.1,30.08,SSE,157,2.9,4.0,71,-99.99,,,0.00,wxRedirect v1.1,2013-05-07 15:18:00,
2013-05-07 10:24:00,61.5,52.1,30.09,SSW,202,6.7,6.7,71,-99.99,,,0.00,wxRedirect v1.1,2013-05-07 15:24:00,
2013-05-07 10:29:00,61.7,52.3,30.09,South,180,5.6,7.6,71,-99.99,,,0.00,wxRedirect v1.1,2013-05-07 15:29:00,
2013-05-07 10:34:00,61.7,51.9,30.09,South,180,9.4,12.3,70,-99.99,,,0.00,wxRedirect v1.1,2013-05-07 15:34:00,
2013-05-07 10:40:00,61.9,52.1,30.09,SSW,202,11.6,12.3,70,-99.99,,,0.00,wxRedirect v1.1,2013-05-07 15:40:00,
2013-05-07 10:45:00,62.2,52.4,30.09,SSW,202,7.2,12.3,70,-99.99,,,0.00,wxRedirect v1.1,2013-05-07 15:45:00,
2013-05-07 10:50:00,62.4,52.5,30.09,SW,225,8.1,12.3,70,-99.99,,,0.00,wxRedirect v1.1,2013-05-07 15:50:00,
2013-05-07 10:56:00,62.4,52.5,30.09,SSE,157,3.8,11.9,70,-99.99,,,0.00,wxRedirect v1.1,2013-05-07 15:56:00,
2013-05-07 11:01:00,62.4,52.5,30.09,South,180,12.1,12.1,70,-99.99,,,0.00,wxRedirect v1.1,2013-05-07 16:01:00,
2013-05-07 11:06:00,62.4,52.1,30.09,SSW,202,11.2,12.1,69,-99.99,,,0.00,wxRedirect v1.1,2013-05-07 16:06:00,
2013-05-07 11:12:00,62.4,52.1,30.09,SSE,157,3.8,11.2,69,-99.99,,,0.00,wxRedirect v1.1,2013-05-07 16:12:00,
2013-05-07 11:17:00,62.6,52.3,30.09,South,180,0.7,9.2,69,-99.99,,,0.00,wxRedirect v1.1,2013-05-07 16:17:00,
2013-05-07 11:23:00,62.8,52.4,30.09,South,180,8.9,8.9,69,-99.99,,,0.00,wxRedirect v1.1,2013-05-07 16:23:00,
2013-05-07 11:28:00,63.1,52.8,30.09,SSW,202,4.3,8.9,69,-99.99,,,0.00,wxRedirect v1.1,2013-05-07 16:28:00,
2013-05-07 11:33:00,63.1,52.8,30.08,SSE,157,5.8,12.8,69,-99.99,,,0.00,wxRedirect v1.1,2013-05-07 16:33:00,
2013-05-07 11:38:00,63.3,52.6,30.08,SSW,202,5.1,12.8,68,-99.99,,,0.00,wxRedirect v1.1,2013-05-07 16:38:00,
2013-05-07 11:44:00,63.5,52.8,30.08,SW,225,7.8,8.1,68,-99.99,,,0.00,wxRedirect v1.1,2013-05-07 16:44:00,
2013-05-07 11:49:00,63.7,52.9,30.08,SW,225,12.5,12.5,68,-99.99,,,0.00,wxRedirect v1.1,2013-05-07 16:49:00,
2013-05-07 11:54:00,63.7,52.9,30.08,SSW,202,11.0,12.5,68,-99.99,,,0.00,wxRedirect v1.1,2013-05-07 16:54:00,
2013-05-07 12:00:00,64.0,53.3,30.08,South,180,7.8,11.0,68,-99.99,,,0.00,wxRedirect v1.1,2013-05-07 17:00:00,
2013-05-07 12:05:00,64.0,52.8,30.08,SW,225,6.7,11.0,67,-99.99,,,0.00,wxRedirect v1.1,2013-05-07 17:05:00,
2013-05-07 12:10:00,64.2,53.0,30.08,SSW,202,3.6,10.7,67,-99.99,,,0.00,wxRedirect v1.1,2013-05-07 17:10:00,
2013-05-07 12:16:00,64.6,53.4,30.08,South,180,3.1,10.7,67,-99.99,,,0.00,wxRedirect v1.1,2013-05-07 17:16:00,
2013-05-07 12:21:00,64.8,53.1,30.07,South,180,5.6,13.6,66,-99.99,,,0.00,wxRedirect v1.1,2013-05-07 17:21:00,
2013-05-07 12:26:00,64.9,53.3,30.07,South,180,0.0,13.6,66,-99.99,,,0.00,wxRedirect v1.1,2013-05-07 17:26:00,
2013-05-07 12:32:00,65.3,53.6,30.06,SSE,157,3.1,7.4,66,-99.99,,,0.00,wxRedirect v1.1,2013-05-07 17:32:00,
2013-05-07 12:37:00,65.5,53.8,30.06,South,180,8.1,8.1,66,-99.99,,,0.00,wxRedirect v1.1,2013-05-07 17:37:00,
2013-05-07 12:42:00,65.8,53.7,30.06,South,180,12.3,12.3,65,-99.99,,,0.00,wxRedirect v1.1,2013-05-07 17:42:00,
2013-05-07 12:48:00,65.8,53.3,30.06,ESE,112,5.1,12.3,64,-99.99,,,0.00,wxRedirect v1.1,2013-05-07 17:48:00,
2013-05-07 12:53:00,66.0,53.5,30.06,SSE,157,5.6,12.3,64,-99.99,,,0.00,wxRedirect v1.1,2013-05-07 17:53:00,
2013-05-07 12:58:00,66.2,53.6,30.06,SSE,157,6.7,10.1,64,-99.99,,,0.00,wxRedirect v1.1,2013-05-07 17:58:00,
2013-05-07 13:04:00,66.7,54.6,30.05,South,180,3.6,10.1,65,-99.99,,,0.00,wxRedirect v1.1,2013-05-07 18:04:00,
2013-05-07 13:09:00,67.6,54.6,30.05,SSE,157,8.7,8.7,63,-99.99,,,0.00,wxRedirect v1.1,2013-05-07 18:09:00,
2013-05-07 13:14:00,67.6,53.7,30.04,SSE,157,6.9,8.7,61,-99.99,,,0.00,wxRedirect v1.1,2013-05-07 18:14:00,
2013-05-07 13:20:00,67.5,53.5,30.04,South,180,7.2,10.1,61,-99.99,,,0.00,wxRedirect v1.1,2013-05-07 18:20:00,
2013-05-07 13:25:00,67.3,53.0,30.04,SSE,157,6.5,10.7,60,-99.99,,,0.00,wxRedirect v1.1,2013-05-07 18:25:00,
2013-05-07 13:31:00,66.7,52.9,30.04,SE,135,4.0,10.7,61,-99.99,,,0.00,wxRedirect v1.1,2013-05-07 18:31:00,
2013-05-07 13:36:00,66.7,52.5,30.04,SSE,157,5.6,7.8,60,-99.99,,,0.00,wxRedirect v1.1,2013-05-07 18:36:00,
2013-05-07 13:41:00,66.7,52.9,30.04,South,180,7.2,7.8,61,-99.99,,,0.00,wxRedirect v1.1,2013-05-07 18:41:00,
2013-05-07 13:46:00,66.6,52.7,30.04,SSE,157,4.3,7.2,61,-99.99,,,0.00,wxRedirect v1.1,2013-05-07 18:46:00,
2013-05-07 13:52:00,66.6,52.7,30.04,SE,135,1.8,7.2,61,-99.99,,,0.00,wxRedirect v1.1,2013-05-07 18:52:00,
2013-05-07 13:57:00,66.0,52.2,30.04,SSE,157,4.7,4.7,61,-99.99,,,0.00,wxRedirect v1.1,2013-05-07 18:57:00,
2013-05-07 14:02:00,66.0,52.2,30.04,SSW,202,1.1,4.7,61,-99.99,,,0.00,wxRedirect v1.1,2013-05-07 19:02:00,
2013-05-07 14:08:00,66.6,52.7,30.04,South,180,11.6,11.6,61,-99.99,,,0.00,wxRedirect v1.1,2013-05-07 19:08:00,
2013-05-07 14:13:00,66.7,52.9,30.04,South,180,6.5,11.6,61,-99.99,,,0.00,wxRedirect v1.1,2013-05-07 19:13:00,
2013-05-07 14:18:00,66.7,52.5,30.03,SSE,157,6.7,11.6,60,-99.99,,,0.00,wxRedirect v1.1,2013-05-07 19:18:00,
2013-05-07 14:24:00,66.7,52.5,30.03,SSE,157,3.8,11.2,60,-99.99,,,0.00,wxRedirect v1.1,2013-05-07 19:24:00,
2013-05-07 14:29:00,66.7,52.9,30.02,SSE,157,3.8,8.1,61,-99.99,,,0.00,wxRedirect v1.1,2013-05-07 19:29:00,
2013-05-07 14:34:00,66.7,52.9,30.03,SE,135,1.6,5.4,61,-99.99,,,0.00,wxRedirect v1.1,2013-05-07 19:34:00,
2013-05-07 14:40:00,66.6,52.7,30.02,SSE,157,2.9,5.4,61,-99.99,,,0.00,wxRedirect v1.1,2013-05-07 19:40:00,
2013-05-07 14:45:00,66.6,52.7,30.02,SSE,157,4.5,4.5,61,-99.99,,,0.00,wxRedirect v1.1,2013-05-07 19:45:00,
2013-05-07 14:51:00,66.0,51.8,30.02,SE,135,0.7,4.9,60,-99.99,,,0.00,wxRedirect v1.1,2013-05-07 19:51:00,
2013-05-07 14:56:00,66.4,52.6,30.02,ESE,112,4.3,4.9,61,-99.99,,,0.00,wxRedirect v1.1,2013-05-07 19:56:00,
2013-05-07 15:01:00,66.0,51.8,30.01,SSE,157,4.3,6.3,60,-99.99,,,0.00,wxRedirect v1.1,2013-05-07 20:01:00,
2013-05-07 15:06:00,69.6,53.2,30.01,SSE,157,9.6,9.6,56,-99.99,,,0.00,wxRedirect v1.1,2013-05-07 20:06:00,
2013-05-07 15:12:00,66.7,53.3,30.01,SE,135,2.7,9.6,56,-99.99,,,0.00,wxRedirect v1.1,2013-05-07 20:12:00,
2013-05-07 15:17:00,67.3,53.4,30.01,South,180,3.6,4.9,61,-99.99,,,0.00,wxRedirect v1.1,2013-05-07 20:17:00,
2013-05-07 15:22:00,67.6,53.7,30.00,SSE,157,2.9,4.9,61,-99.99,,,0.00,wxRedirect v1.1,2013-05-07 20:22:00,
2013-05-07 15:28:00,67.8,53.0,30.00,SSE,157,4.3,4.9,59,-99.99,,,0.00,wxRedirect v1.1,2013-05-07 20:28:00,
2013-05-07 15:33:00,67.8,53.0,29.99,SSE,157,5.8,5.8,59,-99.99,,,0.00,wxRedirect v1.1,2013-05-07 20:33:00,
2013-05-07 15:38:00,68.4,53.5,29.99,SSW,202,8.7,8.7,59,-99.99,,,0.00,wxRedirect v1.1,2013-05-07 20:38:00,
2013-05-07 15:44:00,68.5,53.2,29.99,SE,135,4.0,8.7,58,-99.99,,,0.00,wxRedirect v1.1,2013-05-07 20:44:00,
2013-05-07 15:49:00,68.7,53.3,29.99,SSE,157,7.2,7.2,58,-99.99,,,0.00,wxRedirect v1.1,2013-05-07 20:49:00,
2013-05-07 15:54:00,68.9,53.0,29.99,SE,135,6.3,7.2,57,-99.99,,,0.00,wxRedirect v1.1,2013-05-07 20:54:00,
2013-05-07 15:59:00,69.1,53.2,29.98,SSE,157,5.6,7.2,57,-99.99,,,0.00,wxRedirect v1.1,2013-05-07 20:59:00,
2013-05-07 16:05:00,68.9,53.0,29.98,SE,135,3.8,5.6,57,-99.99,,,0.00,wxRedirect v1.1,2013-05-07 21:05:00,
2013-05-07 16:10:00,69.4,54.0,29.98,SSE,157,2.0,7.4,58,-99.99,,,0.00,wxRedirect v1.1,2013-05-07 21:10:00,
2013-05-07 16:15:00,69.6,54.2,29.98,SSE,157,4.3,11.4,58,-99.99,,,0.00,wxRedirect v1.1,2013-05-07 21:15:00,
2013-05-07 16:21:00,69.6,54.7,29.98,SE,135,2.9,11.4,59,-99.99,,,0.00,wxRedirect v1.1,2013-05-07 21:21:00,
2013-05-07 16:26:00,69.6,54.7,29.98,SSE,157,5.1,6.5,59,-99.99,,,0.00,wxRedirect v1.1,2013-05-07 21:26:00,
2013-05-07 16:31:00,69.8,55.4,29.98,SE,135,2.7,10.7,60,-99.99,,,0.00,wxRedirect v1.1,2013-05-07 21:31:00,
2013-05-07 16:36:00,69.8,55.4,29.97,SE,135,4.7,10.7,60,-99.99,,,0.00,wxRedirect v1.1,2013-05-07 21:36:00,
2013-05-07 16:42:00,69.8,53.9,29.98,SSE,157,11.0,11.0,57,-99.99,,,0.00,wxRedirect v1.1,2013-05-07 21:42:00,
2013-05-07 16:47:00,69.8,53.9,29.97,SSE,157,7.8,11.0,57,-99.99,,,0.00,wxRedirect v1.1,2013-05-07 21:47:00,
2013-05-07 16:52:00,70.0,53.5,29.97,SSE,157,3.4,11.2,56,-99.99,,,0.00,wxRedirect v1.1,2013-05-07 21:52:00,
2013-05-07 16:58:00,70.0,53.5,29.97,SE,135,2.7,11.2,56,-99.99,,,0.00,wxRedirect v1.1,2013-05-07 21:58:00,
2013-05-07 17:03:00,70.0,53.5,29.97,SE,135,7.4,10.3,56,-99.99,,,0.00,wxRedirect v1.1,2013-05-07 22:03:00,
2013-05-07 17:08:00,70.0,53.0,29.97,SE,135,4.5,7.4,55,-99.99,,,0.00,wxRedirect v1.1,2013-05-07 22:08:00,
2013-05-07 17:14:00,70.0,52.5,29.97,SSE,157,6.9,7.2,54,-99.99,,,0.00,wxRedirect v1.1,2013-05-07 22:14:00,
2013-05-07 17:19:00,70.2,52.7,29.97,SE,135,4.7,15.4,54,-99.99,,,0.00,wxRedirect v1.1,2013-05-07 22:19:00,
2013-05-07 17:24:00,70.2,52.7,29.97,SE,135,5.8,15.4,54,-99.99,,,0.00,wxRedirect v1.1,2013-05-07 22:24:00,
2013-05-07 17:30:00,70.2,52.2,29.96,SSE,157,3.1,9.8,53,-99.99,,,0.00,wxRedirect v1.1,2013-05-07 22:30:00,
2013-05-07 17:35:00,69.8,51.9,29.97,SSE,157,8.3,9.8,53,-99.99,,,0.00,wxRedirect v1.1,2013-05-07 22:35:00,
2013-05-07 17:40:00,70.2,52.2,29.97,SE,135,5.6,10.1,53,-99.99,,,0.00,wxRedirect v1.1,2013-05-07 22:40:00,
2013-05-07 17:46:00,70.0,52.0,29.97,SE,135,6.3,10.1,53,-99.99,,,0.00,wxRedirect v1.1,2013-05-07 22:46:00,
2013-05-07 17:51:00,70.0,52.0,29.96,SSE,157,6.5,6.5,53,-99.99,,,0.00,wxRedirect v1.1,2013-05-07 22:51:00,
2013-05-07 17:56:00,70.0,52.0,29.96,ESE,112,5.4,9.6,53,-99.99,,,0.00,wxRedirect v1.1,2013-05-07 22:56:00,
2013-05-07 18:02:00,70.0,52.5,29.97,South,180,11.0,11.0,54,-99.99,,,0.00,wxRedirect v1.1,2013-05-07 23:02:00,
2013-05-07 18:07:00,70.0,52.5,29.97,SE,135,5.1,11.0,54,-99.99,,,0.00,wxRedirect v1.1,2013-05-07 23:07:00,
2013-05-07 18:12:00,70.0,52.5,29.96,SSE,157,4.7,11.0,54,-99.99,,,0.00,wxRedirect v1.1,2013-05-07 23:12:00,
2013-05-07 18:17:00,70.0,52.5,29.97,South,180,5.8,8.3,54,-99.99,,,0.00,wxRedirect v1.1,2013-05-07 23:17:00,
2013-05-07 18:23:00,70.0,52.5,29.97,ESE,112,5.8,9.8,54,-99.99,,,0.00,wxRedirect v1.1,2013-05-07 23:23:00,
2013-05-07 18:28:00,70.0,52.5,29.96,South,180,12.5,12.5,54,-99.99,,,0.00,wxRedirect v1.1,2013-05-07 23:28:00,
2013-05-07 18:33:00,70.0,52.5,29.96,SSE,157,12.5,12.5,54,-99.99,,,0.00,wxRedirect v1.1,2013-05-07 23:33:00,
2013-05-07 18:38:00,70.0,52.0,29.96,SSE,157,5.6,12.5,53,-99.99,,,0.00,wxRedirect v1.1,2013-05-07 23:38:00,
2013-05-07 18:44:00,70.0,52.0,29.96,SE,135,5.1,10.1,53,-99.99,,,0.00,wxRedirect v1.1,2013-05-07 23:44:00,
2013-05-07 18:49:00,70.0,52.0,29.95,SE,135,6.9,6.9,53,-99.99,,,0.00,wxRedirect v1.1,2013-05-07 23:49:00,
2013-05-07 18:54:00,70.0,52.0,29.95,SSE,157,11.4,13.4,53,-99.99,,,0.00,wxRedirect v1.1,2013-05-07 23:54:00,
2013-05-07 19:00:00,69.8,51.9,29.94,ESE,112,12.5,13.4,53,-99.99,,,0.00,wxRedirect v1.1,2013-05-08 00:00:00,
2013-05-07 19:05:00,69.8,51.9,29.94,SSE,157,11.9,12.5,53,-99.99,,,0.00,wxRedirect v1.1,2013-05-08 00:05:00,
2013-05-07 19:10:00,69.8,51.4,29.94,SE,135,6.9,11.9,52,-99.99,,,0.00,wxRedirect v1.1,2013-05-08 00:10:00,
2013-05-07 19:16:00,69.4,51.0,29.94,SE,135,7.2,7.2,52,-99.99,,,0.00,wxRedirect v1.1,2013-05-08 00:16:00,
2013-05-07 19:21:00,69.6,51.2,29.93,SE,135,4.0,7.2,52,-99.99,,,0.00,wxRedirect v1.1,2013-05-08 00:21:00,
2013-05-07 19:27:00,69.6,50.7,29.93,South,180,13.6,13.6,51,-99.99,,,0.00,wxRedirect v1.1,2013-05-08 00:27:00,
2013-05-07 19:32:00,69.6,50.7,29.93,SSE,157,5.8,13.6,51,-99.99,,,0.00,wxRedirect v1.1,2013-05-08 00:32:00,
2013-05-07 19:37:00,69.6,50.7,29.93,SSE,157,2.9,6.3,51,-99.99,,,0.00,wxRedirect v1.1,2013-05-08 00:37:00,
2013-05-07 19:42:00,69.4,50.5,29.93,ESE,112,7.4,7.4,51,-99.99,,,0.00,wxRedirect v1.1,2013-05-08 00:42:00,
2013-05-07 19:48:00,69.4,50.5,29.93,ESE,112,3.1,7.4,51,-99.99,,,0.00,wxRedirect v1.1,2013-05-08 00:48:00,
2013-05-07 19:53:00,69.1,50.2,29.94,ESE,112,0.0,4.0,51,-99.99,,,0.00,wxRedirect v1.1,2013-05-08 00:53:00,
2013-05-07 19:58:00,69.1,50.2,29.93,SE,135,5.1,9.8,51,-99.99,,,0.00,wxRedirect v1.1,2013-05-08 00:58:00,
2013-05-07 20:03:00,68.9,50.0,29.93,SE,135,3.1,9.8,51,-99.99,,,0.00,wxRedirect v1.1,2013-05-08 01:03:00,
2013-05-07 20:09:00,68.7,49.9,29.93,SE,135,4.7,5.8,51,-99.99,,,0.00,wxRedirect v1.1,2013-05-08 01:09:00,
2013-05-07 20:14:00,68.7,49.9,29.93,SE,135,6.9,6.9,51,-99.99,,,0.00,wxRedirect v1.1,2013-05-08 01:14:00,
2013-05-07 20:19:00,68.5,49.7,29.93,SSE,157,3.1,6.9,51,-99.99,,,0.00,wxRedirect v1.1,2013-05-08 01:19:00,
2013-05-07 20:25:00,68.5,49.7,29.93,ESE,112,2.9,6.9,51,-99.99,,,0.00,wxRedirect v1.1,2013-05-08 01:25:00,
2013-05-07 20:30:00,68.5,49.7,29.93,SE,135,2.2,4.0,51,-99.99,,,0.00,wxRedirect v1.1,2013-05-08 01:30:00,
2013-05-07 20:35:00,68.4,49.6,29.93,SE,135,4.3,6.5,51,-99.99,,,0.00,wxRedirect v1.1,2013-05-08 01:35:00,
2013-05-07 20:41:00,68.2,49.4,29.93,SE,135,5.6,6.5,51,-99.99,,,0.00,wxRedirect v1.1,2013-05-08 01:41:00,
2013-05-07 20:46:00,68.2,49.4,29.93,SSE,157,8.7,8.7,51,-99.99,,,0.00,wxRedirect v1.1,2013-05-08 01:46:00,
2013-05-07 20:51:00,67.8,49.1,29.93,SE,135,2.9,8.7,51,-99.99,,,0.00,wxRedirect v1.1,2013-05-08 01:51:00,
2013-05-07 20:56:00,67.8,49.1,29.93,SE,135,2.9,3.4,51,-99.99,,,0.00,wxRedirect v1.1,2013-05-08 01:56:00,
2013-05-07 21:01:00,67.8,49.1,29.93,ESE,112,6.3,6.3,51,-99.99,,,0.00,wxRedirect v1.1,2013-05-08 02:01:00,
2013-05-07 21:07:00,67.6,48.9,29.93,SE,135,2.9,6.3,51,-99.99,,,0.00,wxRedirect v1.1,2013-05-08 02:07:00,
2013-05-07 21:12:00,67.5,49.2,29.93,SE,135,2.9,6.3,52,-99.99,,,0.00,wxRedirect v1.1,2013-05-08 02:12:00,
2013-05-07 21:17:00,67.3,49.1,29.94,East,90,6.5,6.5,52,-99.99,,,0.00,wxRedirect v1.1,2013-05-08 02:17:00,
2013-05-07 21:23:00,67.3,49.1,29.93,SE,135,3.8,6.5,52,-99.99,,,0.00,wxRedirect v1.1,2013-05-08 02:23:00,
2013-05-07 21:28:00,67.1,48.9,29.93,SE,135,4.5,4.9,52,-99.99,,,0.00,wxRedirect v1.1,2013-05-08 02:28:00,
2013-05-07 21:33:00,66.9,48.7,29.93,SE,135,1.6,4.5,52,-99.99,,,0.00,wxRedirect v1.1,2013-05-08 02:33:00,
2013-05-07 21:39:00,66.7,48.6,29.93,SE,135,3.6,3.6,52,-99.99,,,0.00,wxRedirect v1.1,2013-05-08 02:39:00,
2013-05-07 21:44:00,66.4,48.3,29.93,SE,135,3.4,3.6,52,-99.99,,,0.00,wxRedirect v1.1,2013-05-08 02:44:00,
2013-05-07 21:49:00,66.6,48.4,29.93,SSE,157,3.8,4.5,52,-99.99,,,0.00,wxRedirect v1.1,2013-05-08 02:49:00,
2013-05-07 21:54:00,66.4,48.3,29.93,SSE,157,3.4,5.1,52,-99.99,,,0.00,wxRedirect v1.1,2013-05-08 02:54:00,
2013-05-07 22:00:00,66.4,48.3,29.93,SE,135,4.3,7.6,52,-99.99,,,0.00,wxRedirect v1.1,2013-05-08 03:00:00,
2013-05-07 22:05:00,66.2,48.1,29.93,SE,135,5.6,7.6,52,-99.99,,,0.00,wxRedirect v1.1,2013-05-08 03:05:00,
2013-05-07 22:10:00,66.0,47.9,29.93,SE,135,5.8,5.8,52,-99.99,,,0.00,wxRedirect v1.1,2013-05-08 03:10:00,
2013-05-07 22:15:00,66.0,48.4,29.94,SSE,157,3.8,5.8,53,-99.99,,,0.00,wxRedirect v1.1,2013-05-08 03:15:00,
2013-05-07 22:21:00,66.0,47.9,29.94,SE,135,7.2,7.6,52,-99.99,,,0.00,wxRedirect v1.1,2013-05-08 03:21:00,
2013-05-07 22:26:00,65.8,47.7,29.93,SE,135,7.2,7.6,52,-99.99,,,0.00,wxRedirect v1.1,2013-05-08 03:26:00,
2013-05-07 22:31:00,65.8,47.7,29.93,SE,135,6.9,8.9,52,-99.99,,,0.00,wxRedirect v1.1,2013-05-08 03:31:00,
2013-05-07 22:37:00,65.7,47.6,29.93,SSE,157,11.6,11.6,52,-99.99,,,0.00,wxRedirect v1.1,2013-05-08 03:37:00,
2013-05-07 22:42:00,65.5,47.4,29.93,SE,135,5.1,11.6,52,-99.99,,,0.00,wxRedirect v1.1,2013-05-08 03:42:00,
2013-05-07 22:48:00,65.5,47.9,29.93,SE,135,4.5,9.2,53,-99.99,,,0.00,wxRedirect v1.1,2013-05-08 03:48:00,
2013-05-07 22:53:00,65.3,47.7,29.94,SE,135,7.8,7.8,53,-99.99,,,0.00,wxRedirect v1.1,2013-05-08 03:53:00,
2013-05-07 22:58:00,65.1,47.5,29.93,SE,135,3.8,11.2,53,-99.99,,,0.00,wxRedirect v1.1,2013-05-08 03:58:00,
2013-05-07 23:01:00,65.1,47.5,29.93,SE,135,6.7,11.2,53,-99.99,,,0.00,wxRedirect v1.1,2013-05-08 04:01:00,
2013-05-07 23:02:00,65.1,47.5,29.93,SE,135,6.7,11.2,53,-99.99,,,0.00,wxRedirect v1.1,2013-05-08 04:02:00,
2013-05-07 23:04:00,65.1,47.5,29.93,SE,135,4.7,11.2,53,-99.99,,,0.00,wxRedirect v1.1,2013-05-08 04:04:00,
2013-05-07 23:05:00,65.1,47.5,29.93,North,-999,-999.0,-999.0,53,-99.99,,,0.00,wxRedirect v1.1,2013-05-08 04:05:00,
2013-05-07 23:10:00,64.9,47.3,29.93,SSE,157,6.7,6.7,53,-99.99,,,0.00,wxRedirect v1.1,2013-05-08 04:10:00,
2013-05-07 23:16:00,64.9,47.8,29.93,SSE,157,6.3,6.7,54,-99.99,,,0.00,wxRedirect v1.1,2013-05-08 04:16:00,
2013-05-07 23:21:00,64.8,47.6,29.93,SE,135,3.6,6.3,54,-99.99,,,0.00,wxRedirect v1.1,2013-05-08 04:21:00,
2013-05-07 23:26:00,64.6,47.4,29.92,SE,135,6.5,6.5,54,-99.99,,,0.00,wxRedirect v1.1,2013-05-08 04:26:00,
2013-05-07 23:32:00,64.6,47.4,29.93,SSE,157,9.2,9.2,54,-99.99,,,0.00,wxRedirect v1.1,2013-05-08 04:32:00,
2013-05-07 23:37:00,64.6,47.4,29.92,SSE,157,8.1,9.2,54,-99.99,,,0.00,wxRedirect v1.1,2013-05-08 04:37:00,
2013-05-07 23:42:00,64.2,47.1,29.92,SSE,157,9.4,9.4,54,-99.99,,,0.00,wxRedirect v1.1,2013-05-08 04:42:00,
2013-05-07 23:47:00,64.2,47.1,29.92,SE,135,3.6,9.4,54,-99.99,,,0.00,wxRedirect v1.1,2013-05-08 04:47:00,
2013-05-07 23:53:00,64.2,47.6,29.92,SE,135,7.8,10.5,55,-99.99,,,0.00,wxRedirect v1.1,2013-05-08 04:53:00,
2013-05-07 23:58:00,64.2,47.6,29.92,SSE,157,6.9,10.5,55,-99.99,,,0.00,wxRedirect v1.1,2013-05-08 04:58:00,